Time;durP1;ratioP1;P1;durP2;ratioP2;P2;SDS_P1;SDS_P2;PMS_P1;PMS_P2;Temp;Humidity;BMP_temperature;BMP_pressure;BME280_temperature;BME280_humidity;BME280_pressure;Samples;Min_cycle;Max_cycle;Signal;HPM_P1;HPM_P2
2021/11/21 22:12:43;;;;;;;30.30;15.00;;;;;;;6.90;70.08;98469.37;103975;1303;97792;-71
2021/11/21 22:15:11;;;;;;;28.10;15.40;;;;;;;6.91;69.95;98470.89;102905;1318;97963;-71
2021/11/21 22:17:39;;;;;;;30.40;16.20;;;;;;;6.92;69.82;98470.34;103066;1316;110448;-71
2021/11/21 22:20:09;;;;;;;28.00;16.10;;;;;;;6.93;69.89;98468.83;102927;1317;98014;-70
2021/11/21 22:22:38;;;;;;;30.20;16.70;;;;;;;6.94;70.11;98471.23;103101;1316;107705;-72
2021/11/21 22:25:07;;;;;;;32.70;16.50;;;;;;;6.97;70.05;98473.15;102826;1319;97800;-71
2021/11/21 22:27:35;;;;;;;32.10;17.00;;;;;;;6.98;70.12;98469.39;102956;1318;97998;-72
2021/11/21 22:30:04;;;;;;;32.60;17.60;;;;;;;6.99;70.18;98477.44;102986;1319;111333;-70
2021/11/21 22:32:32;;;;;;;29.80;16.60;;;;;;;6.98;70.09;98475.71;102941;1318;95203;-71
2021/11/21 22:35:00;;;;;;;31.40;15.90;;;;;;;6.98;70.14;98479.98;103020;1319;107962;-71
2021/11/21 22:37:28;;;;;;;30.90;17.20;;;;;;;6.97;69.99;98481.80;102961;1316;97938;-72
2021/11/21 22:39:56;;;;;;;28.40;15.50;;;;;;;6.95;70.00;98486.11;102888;1316;97881;-72
2021/11/21 22:42:24;;;;;;;31.70;17.60;;;;;;;6.96;70.25;98487.12;102803;1319;112200;-72
2021/11/21 22:44:52;;;;;;;32.40;17.90;;;;;;;6.98;69.97;98482.97;102885;1317;97988;-72
2021/11/21 22:47:19;;;;;;;31.40;15.90;;;;;;;6.98;70.15;98481.89;102983;1318;108713;-72
2021/11/21 22:49:47;;;;;;;32.30;17.50;;;;;;;6.95;70.25;98480.46;103087;1317;97979;-71
2021/11/21 22:52:15;;;;;;;31.50;16.80;;;;;;;6.95;70.24;98481.21;102974;1320;95372;-72
2021/11/21 22:54:43;;;;;;;30.60;15.60;;;;;;;6.96;70.14;98483.28;102940;1317;110384;-70
2021/11/21 22:57:11;;;;;;;30.70;16.60;;;;;;;6.96;70.10;98480.76;102842;1317;98016;-71
2021/11/21 22:59:39;;;;;;;34.10;16.30;;;;;;;6.96;70.21;98483.25;102876;1318;108032;-71
2021/11/21 23:02:07;;;;;;;31.80;16.10;;;;;;;6.97;70.44;98483.35;102890;1316;96429;-71
2021/11/21 23:04:36;;;;;;;32.80;17.50;;;;;;;6.96;70.27;98483.44;102887;1316;96072;-71
2021/11/21 23:07:04;;;;;;;30.60;17.70;;;;;;;6.95;70.33;98482.98;102893;1317;111238;-72
2021/11/21 23:09:33;;;;;;;29.30;16.90;;;;;;;6.95;70.37;98487.39;102842;1317;97841;-72
2021/11/21 23:12:01;;;;;;;31.40;16.40;;;;;;;6.96;70.32;98489.27;102976;1316;107839;-71
2021/11/21 23:14:29;;;;;;;32.30;17.80;;;;;;;6.97;70.47;98490.07;103152;1320;99018;-71
2021/11/21 23:16:57;;;;;;;31.80;16.80;;;;;;;6.97;70.22;98486.88;103112;1316;98040;-73
2021/11/21 23:19:25;;;;;;;32.90;17.00;;;;;;;6.97;70.20;98485.84;103120;1316;111473;-73
2021/11/21 23:21:53;;;;;;;32.20;16.60;;;;;;;6.97;70.43;98487.60;103055;1317;97934;-72
2021/11/21 23:24:20;;;;;;;29.80;16.90;;;;;;;6.98;70.50;98488.94;103051;1319;107897;-73
2021/11/21 23:26:48;;;;;;;30.20;16.80;;;;;;;6.98;70.44;98488.05;103010;1321;97983;-73
2021/11/21 23:29:16;;;;;;;31.30;18.80;;;;;;;6.98;70.40;98487.88;103093;1317;97789;-72
2021/11/21 23:31:44;;;;;;;32.80;16.60;;;;;;;6.98;70.47;98490.31;103199;1317;111458;-72
2021/11/21 23:34:12;;;;;;;30.50;17.20;;;;;;;6.99;70.48;98499.11;103211;1317;97963;-72
2021/11/21 23:36:40;;;;;;;33.50;18.70;;;;;;;6.99;70.60;98502.11;103216;1320;107804;-73
2021/11/21 23:39:08;;;;;;;32.50;18.30;;;;;;;6.98;70.51;98499.88;103245;1319;98707;-73
2021/11/21 23:41:36;;;;;;;30.60;17.40;;;;;;;6.98;70.59;98502.14;103166;1316;97834;-72
2021/11/21 23:44:03;;;;;;;31.70;17.40;;;;;;;6.97;70.56;98502.05;103195;1323;111593;-74
2021/11/21 23:46:34;;;;;;;29.90;16.60;;;;;;;6.95;70.53;98496.86;103204;1317;96745;-71
2021/11/21 23:49:08;;;;;;;31.50;17.70;;;;;;;6.94;70.47;98497.30;103223;1319;108006;-73
2021/11/21 23:51:37;;;;;;;30.90;17.10;;;;;;;6.92;70.49;98495.36;103160;1319;98301;-72
2021/11/21 23:54:05;;;;;;;29.90;16.50;;;;;;;6.91;70.67;98495.78;103176;1316;98667;-72
2021/11/21 23:56:34;;;;;;;31.00;16.80;;;;;;;6.91;70.83;98495.59;103440;1316;111620;-72
2021/11/21 23:59:03;;;;;;;31.60;17.90;;;;;;;6.89;70.56;98493.79;103226;1323;97895;-71
